sensor_id;sensor_type;location;lat;lon;timestamp;temperature;humidity
19365;DHT22;9818;48.382;10.850;2022-10-16T00:00:29;13.30;99.90
19365;DHT22;9818;48.382;10.850;2022-10-16T00:02:57;13.30;99.90
19365;DHT22;9818;48.382;10.850;2022-10-16T00:05:26;13.30;99.90
19365;DHT22;9818;48.382;10.850;2022-10-16T00:07:54;13.30;99.90
19365;DHT22;9818;48.382;10.850;2022-10-16T00:10:23;13.30;99.90
19365;DHT22;9818;48.382;10.850;2022-10-16T00:12:52;13.20;99.90
19365;DHT22;9818;48.382;10.850;2022-10-16T00:15:20;13.20;99.90
19365;DHT22;9818;48.382;10.850;2022-10-16T00:17:51;13.20;99.90
19365;DHT22;9818;48.382;10.850;2022-10-16T00:20:20;13.30;99.90
19365;DHT22;9818;48.382;10.850;2022-10-16T00:22:48;13.20;99.90
19365;DHT22;9818;48.382;10.850;2022-10-16T00:25:17;13.20;99.90
19365;DHT22;9818;48.382;10.850;2022-10-16T00:27:45;13.20;99.90
19365;DHT22;9818;48.382;10.850;2022-10-16T00:30:14;13.20;99.90
19365;DHT22;9818;48.382;10.850;2022-10-16T00:32:45;13.20;99.90
19365;DHT22;9818;48.382;10.850;2022-10-16T00:35:16;13.20;99.90
19365;DHT22;9818;48.382;10.850;2022-10-16T00:37:45;13.20;99.90
19365;DHT22;9818;48.382;10.850;2022-10-16T00:40:14;13.20;99.90
19365;DHT22;9818;48.382;10.850;2022-10-16T00:42:45;13.20;99.90
19365;DHT22;9818;48.382;10.850;2022-10-16T00:45:13;13.20;99.90
19365;DHT22;9818;48.382;10.850;2022-10-16T00:47:43;13.20;99.90
19365;DHT22;9818;48.382;10.850;2022-10-16T00:50:21;13.20;99.90
19365;DHT22;9818;48.382;10.850;2022-10-16T00:52:51;13.20;99.90
19365;DHT22;9818;48.382;10.850;2022-10-16T00:55:19;13.20;99.90
19365;DHT22;9818;48.382;10.850;2022-10-16T00:57:48;13.20;99.90
19365;DHT22;9818;48.382;10.850;2022-10-16T01:00:19;13.20;99.90
19365;DHT22;9818;48.382;10.850;2022-10-16T01:02:51;13.20;99.90
19365;DHT22;9818;48.382;10.850;2022-10-16T01:05:23;13.10;99.90
19365;DHT22;9818;48.382;10.850;2022-10-16T01:20:35;13.10;99.90
19365;DHT22;9818;48.382;10.850;2022-10-16T01:23:07;13.30;99.90
19365;DHT22;9818;48.382;10.850;2022-10-16T01:25:51;13.00;99.90
19365;DHT22;9818;48.382;10.850;2022-10-16T01:28:25;13.00;99.90
19365;DHT22;9818;48.382;10.850;2022-10-16T01:30:57;13.00;99.90
19365;DHT22;9818;48.382;10.850;2022-10-16T01:33:27;13.00;99.90
19365;DHT22;9818;48.382;10.850;2022-10-16T01:36:01;12.90;99.90
19365;DHT22;9818;48.382;10.850;2022-10-16T01:38:31;12.90;99.90
19365;DHT22;9818;48.382;10.850;2022-10-16T01:41:03;12.90;99.90
19365;DHT22;9818;48.382;10.850;2022-10-16T01:43:38;12.90;99.90
19365;DHT22;9818;48.382;10.850;2022-10-16T01:46:07;12.90;99.90
19365;DHT22;9818;48.382;10.850;2022-10-16T01:48:37;12.90;99.90
19365;DHT22;9818;48.382;10.850;2022-10-16T01:51:06;12.80;99.90
19365;DHT22;9818;48.382;10.850;2022-10-16T01:53:37;12.80;99.90
19365;DHT22;9818;48.382;10.850;2022-10-16T01:56:06;12.80;99.90
19365;DHT22;9818;48.382;10.850;2022-10-16T01:58:39;12.70;99.90
19365;DHT22;9818;48.382;10.850;2022-10-16T02:01:10;12.70;99.90
19365;DHT22;9818;48.382;10.850;2022-10-16T02:03:40;12.60;99.90
19365;DHT22;9818;48.382;10.850;2022-10-16T02:06:10;12.60;99.90
19365;DHT22;9818;48.382;10.850;2022-10-16T02:08:39;12.60;99.90
19365;DHT22;9818;48.382;10.850;2022-10-16T02:11:09;12.60;99.90
19365;DHT22;9818;48.382;10.850;2022-10-16T02:13:41;12.60;99.90
19365;DHT22;9818;48.382;10.850;2022-10-16T02:16:12;12.60;99.90
19365;DHT22;9818;48.382;10.850;2022-10-16T02:18:41;12.70;99.90
19365;DHT22;9818;48.382;10.850;2022-10-16T02:21:11;12.70;99.90
19365;DHT22;9818;48.382;10.850;2022-10-16T02:23:43;12.70;99.90
19365;DHT22;9818;48.382;10.850;2022-10-16T02:26:15;12.70;99.90
19365;DHT22;9818;48.382;10.850;2022-10-16T02:28:50;12.70;99.90
19365;DHT22;9818;48.382;10.850;2022-10-16T02:31:22;12.70;99.90
19365;DHT22;9818;48.382;10.850;2022-10-16T02:33:53;12.80;99.90
19365;DHT22;9818;48.382;10.850;2022-10-16T02:36:23;12.80;99.90
19365;DHT22;9818;48.382;10.850;2022-10-16T02:38:51;12.80;99.90
19365;DHT22;9818;48.382;10.850;2022-10-16T02:41:20;12.80;99.90
19365;DHT22;9818;48.382;10.850;2022-10-16T02:43:52;12.90;99.90
19365;DHT22;9818;48.382;10.850;2022-10-16T02:46:20;12.90;99.90
19365;DHT22;9818;48.382;10.850;2022-10-16T02:48:49;12.90;99.90
19365;DHT22;9818;48.382;10.850;2022-10-16T02:51:17;13.00;99.90
19365;DHT22;9818;48.382;10.850;2022-10-16T02:53:46;12.90;99.90
19365;DHT22;9818;48.382;10.850;2022-10-16T02:56:14;12.90;99.90
19365;DHT22;9818;48.382;10.850;2022-10-16T02:58:42;13.00;99.90
19365;DHT22;9818;48.382;10.850;2022-10-16T03:01:13;13.10;99.90
19365;DHT22;9818;48.382;10.850;2022-10-16T03:03:42;13.10;99.90
19365;DHT22;9818;48.382;10.850;2022-10-16T03:06:10;13.10;99.90
19365;DHT22;9818;48.382;10.850;2022-10-16T03:08:39;13.20;99.90
19365;DHT22;9818;48.382;10.850;2022-10-16T03:11:07;13.20;99.90
19365;DHT22;9818;48.382;10.850;2022-10-16T03:13:36;13.20;99.90
19365;DHT22;9818;48.382;10.850;2022-10-16T03:16:04;13.30;99.90
19365;DHT22;9818;48.382;10.850;2022-10-16T03:18:35;13.30;99.90
19365;DHT22;9818;48.382;10.850;2022-10-16T03:21:04;13.30;99.90
19365;DHT22;9818;48.382;10.850;2022-10-16T03:23:32;13.30;99.90
19365;DHT22;9818;48.382;10.850;2022-10-16T03:26:00;13.30;99.90
19365;DHT22;9818;48.382;10.850;2022-10-16T03:28:29;13.30;99.90
19365;DHT22;9818;48.382;10.850;2022-10-16T03:30:57;13.40;99.90
19365;DHT22;9818;48.382;10.850;2022-10-16T03:33:26;13.30;99.90
19365;DHT22;9818;48.382;10.850;2022-10-16T03:35:57;13.30;99.90
19365;DHT22;9818;48.382;10.850;2022-10-16T03:38:26;13.30;99.90
19365;DHT22;9818;48.382;10.850;2022-10-16T03:40:54;13.40;99.90
19365;DHT22;9818;48.382;10.850;2022-10-16T03:43:23;13.40;99.90
19365;DHT22;9818;48.382;10.850;2022-10-16T03:45:51;13.40;99.90
19365;DHT22;9818;48.382;10.850;2022-10-16T03:48:19;13.40;99.90
19365;DHT22;9818;48.382;10.850;2022-10-16T03:50:48;13.50;99.90
19365;DHT22;9818;48.382;10.850;2022-10-16T03:53:19;13.50;99.90
19365;DHT22;9818;48.382;10.850;2022-10-16T03:55:48;13.50;99.90
19365;DHT22;9818;48.382;10.850;2022-10-16T03:58:16;13.50;99.90
19365;DHT22;9818;48.382;10.850;2022-10-16T04:00:45;13.50;99.90
19365;DHT22;9818;48.382;10.850;2022-10-16T04:03:14;13.50;99.90
19365;DHT22;9818;48.382;10.850;2022-10-16T04:05:44;13.50;99.90
19365;DHT22;9818;48.382;10.850;2022-10-16T04:08:12;13.50;99.90
19365;DHT22;9818;48.382;10.850;2022-10-16T04:10:44;13.50;99.90
19365;DHT22;9818;48.382;10.850;2022-10-16T04:13:13;13.50;99.90
19365;DHT22;9818;48.382;10.850;2022-10-16T04:15:41;13.50;99.90
19365;DHT22;9818;48.382;10.850;2022-10-16T04:18:10;13.50;99.90
19365;DHT22;9818;48.382;10.850;2022-10-16T04:20:38;13.50;99.90
19365;DHT22;9818;48.382;10.850;2022-10-16T04:23:07;13.50;99.90
19365;DHT22;9818;48.382;10.850;2022-10-16T04:25:35;13.50;99.90
19365;DHT22;9818;48.382;10.850;2022-10-16T04:28:06;13.50;99.90
19365;DHT22;9818;48.382;10.850;2022-10-16T04:30:37;13.50;99.90
19365;DHT22;9818;48.382;10.850;2022-10-16T04:33:05;13.50;99.90
19365;DHT22;9818;48.382;10.850;2022-10-16T04:35:34;13.50;99.90
19365;DHT22;9818;48.382;10.850;2022-10-16T04:38:02;13.50;99.90
19365;DHT22;9818;48.382;10.850;2022-10-16T04:40:30;13.60;99.90
19365;DHT22;9818;48.382;10.850;2022-10-16T04:43:01;13.50;99.90
19365;DHT22;9818;48.382;10.850;2022-10-16T04:45:32;13.50;99.90
19365;DHT22;9818;48.382;10.850;2022-10-16T04:48:01;13.50;99.90
19365;DHT22;9818;48.382;10.850;2022-10-16T04:50:29;13.40;99.90
19365;DHT22;9818;48.382;10.850;2022-10-16T04:52:57;13.40;99.90
19365;DHT22;9818;48.382;10.850;2022-10-16T04:55:26;13.30;99.90
19365;DHT22;9818;48.382;10.850;2022-10-16T04:57:54;13.20;99.90
19365;DHT22;9818;48.382;10.850;2022-10-16T05:00:23;13.10;99.90
19365;DHT22;9818;48.382;10.850;2022-10-16T05:02:54;13.10;99.90
19365;DHT22;9818;48.382;10.850;2022-10-16T05:05:25;13.00;99.90
19365;DHT22;9818;48.382;10.850;2022-10-16T05:07:53;12.90;99.90
19365;DHT22;9818;48.382;10.850;2022-10-16T05:10:22;12.90;99.90
19365;DHT22;9818;48.382;10.850;2022-10-16T05:12:50;12.80;99.90
19365;DHT22;9818;48.382;10.850;2022-10-16T05:15:19;12.80;99.90
19365;DHT22;9818;48.382;10.850;2022-10-16T05:17:54;12.80;99.90
19365;DHT22;9818;48.382;10.850;2022-10-16T05:20:23;12.70;99.90
19365;DHT22;9818;48.382;10.850;2022-10-16T05:22:51;12.70;99.90
19365;DHT22;9818;48.382;10.850;2022-10-16T05:25:20;12.60;99.90
19365;DHT22;9818;48.382;10.850;2022-10-16T05:27:48;12.60;99.90
19365;DHT22;9818;48.382;10.850;2022-10-16T05:30:17;12.50;99.90
19365;DHT22;9818;48.382;10.850;2022-10-16T05:32:46;12.50;99.90
19365;DHT22;9818;48.382;10.850;2022-10-16T05:35:17;12.50;99.90
19365;DHT22;9818;48.382;10.850;2022-10-16T05:37:46;12.50;99.90
19365;DHT22;9818;48.382;10.850;2022-10-16T05:40:15;12.50;99.90
19365;DHT22;9818;48.382;10.850;2022-10-16T05:42:43;12.50;99.90
19365;DHT22;9818;48.382;10.850;2022-10-16T05:45:12;12.50;99.90
19365;DHT22;9818;48.382;10.850;2022-10-16T05:47:41;12.50;99.90
19365;DHT22;9818;48.382;10.850;2022-10-16T05:50:09;12.50;99.90
19365;DHT22;9818;48.382;10.850;2022-10-16T05:52:40;12.50;99.90
19365;DHT22;9818;48.382;10.850;2022-10-16T05:55:08;12.50;99.90
19365;DHT22;9818;48.382;10.850;2022-10-16T05:57:37;12.50;99.90
19365;DHT22;9818;48.382;10.850;2022-10-16T06:00:06;12.50;99.90
19365;DHT22;9818;48.382;10.850;2022-10-16T06:02:34;12.60;99.90
19365;DHT22;9818;48.382;10.850;2022-10-16T06:05:03;12.60;99.90
19365;DHT22;9818;48.382;10.850;2022-10-16T06:07:33;12.70;99.90
19365;DHT22;9818;48.382;10.850;2022-10-16T06:10:05;12.90;99.90
19365;DHT22;9818;48.382;10.850;2022-10-16T06:12:34;13.00;99.90
19365;DHT22;9818;48.382;10.850;2022-10-16T06:15:03;13.20;99.90
19365;DHT22;9818;48.382;10.850;2022-10-16T06:17:31;13.40;99.90
19365;DHT22;9818;48.382;10.850;2022-10-16T06:20:00;13.60;99.90
19365;DHT22;9818;48.382;10.850;2022-10-16T06:22:28;13.70;99.90
19365;DHT22;9818;48.382;10.850;2022-10-16T06:24:56;13.80;99.90
19365;DHT22;9818;48.382;10.850;2022-10-16T06:27:27;14.60;99.90
19365;DHT22;9818;48.382;10.850;2022-10-16T06:29:56;16.00;99.90
19365;DHT22;9818;48.382;10.850;2022-10-16T06:32:24;17.40;99.90
19365;DHT22;9818;48.382;10.850;2022-10-16T06:34:53;18.70;99.90
19365;DHT22;9818;48.382;10.850;2022-10-16T06:37:21;19.20;99.90
19365;DHT22;9818;48.382;10.850;2022-10-16T06:39:50;19.90;99.90
19365;DHT22;9818;48.382;10.850;2022-10-16T06:42:19;19.60;99.90
19365;DHT22;9818;48.382;10.850;2022-10-16T06:44:50;19.10;99.90
19365;DHT22;9818;48.382;10.850;2022-10-16T06:47:19;20.10;99.90
19365;DHT22;9818;48.382;10.850;2022-10-16T06:49:48;20.50;99.90
19365;DHT22;9818;48.382;10.850;2022-10-16T06:52:16;20.40;99.90
19365;DHT22;9818;48.382;10.850;2022-10-16T06:54:45;20.60;99.90
19365;DHT22;9818;48.382;10.850;2022-10-16T06:57:13;21.40;99.90
19365;DHT22;9818;48.382;10.850;2022-10-16T06:59:42;21.20;99.90
19365;DHT22;9818;48.382;10.850;2022-10-16T07:02:13;19.50;99.90
19365;DHT22;9818;48.382;10.850;2022-10-16T07:04:42;18.50;99.90
19365;DHT22;9818;48.382;10.850;2022-10-16T07:07:11;19.10;99.90
19365;DHT22;9818;48.382;10.850;2022-10-16T07:09:40;20.50;99.90
19365;DHT22;9818;48.382;10.850;2022-10-16T07:12:09;20.80;99.90
19365;DHT22;9818;48.382;10.850;2022-10-16T07:14:37;21.50;99.90
19365;DHT22;9818;48.382;10.850;2022-10-16T07:17:06;20.50;99.90
19365;DHT22;9818;48.382;10.850;2022-10-16T07:19:37;20.90;99.90
19365;DHT22;9818;48.382;10.850;2022-10-16T07:22:06;22.10;99.90
19365;DHT22;9818;48.382;10.850;2022-10-16T07:24:35;23.30;99.90
19365;DHT22;9818;48.382;10.850;2022-10-16T07:27:03;24.20;99.90
19365;DHT22;9818;48.382;10.850;2022-10-16T07:29:32;24.60;99.90
19365;DHT22;9818;48.382;10.850;2022-10-16T07:32:01;24.90;99.90
19365;DHT22;9818;48.382;10.850;2022-10-16T07:34:30;24.60;99.90
19365;DHT22;9818;48.382;10.850;2022-10-16T07:37:01;25.30;99.90
19365;DHT22;9818;48.382;10.850;2022-10-16T07:39:30;26.20;99.90
19365;DHT22;9818;48.382;10.850;2022-10-16T07:41:59;25.10;99.90
19365;DHT22;9818;48.382;10.850;2022-10-16T07:44:27;24.20;99.90
19365;DHT22;9818;48.382;10.850;2022-10-16T07:46:56;23.40;99.90
19365;DHT22;9818;48.382;10.850;2022-10-16T07:49:25;24.80;99.90
19365;DHT22;9818;48.382;10.850;2022-10-16T07:51:54;25.90;99.90
19365;DHT22;9818;48.382;10.850;2022-10-16T07:54:25;26.40;99.90
19365;DHT22;9818;48.382;10.850;2022-10-16T07:56:53;25.40;99.90
19365;DHT22;9818;48.382;10.850;2022-10-16T07:59:22;24.20;99.90
19365;DHT22;9818;48.382;10.850;2022-10-16T08:01:51;24.60;99.90
19365;DHT22;9818;48.382;10.850;2022-10-16T08:04:19;25.90;99.90
19365;DHT22;9818;48.382;10.850;2022-10-16T08:06:48;26.10;99.90
19365;DHT22;9818;48.382;10.850;2022-10-16T08:09:17;25.40;99.90
19365;DHT22;9818;48.382;10.850;2022-10-16T08:11:48;25.00;99.90
19365;DHT22;9818;48.382;10.850;2022-10-16T08:14:18;24.20;99.90
19365;DHT22;9818;48.382;10.850;2022-10-16T08:16:47;24.10;99.90
19365;DHT22;9818;48.382;10.850;2022-10-16T08:19:15;23.30;99.90
19365;DHT22;9818;48.382;10.850;2022-10-16T08:21:46;23.60;99.90
19365;DHT22;9818;48.382;10.850;2022-10-16T08:24:14;23.20;99.90
19365;DHT22;9818;48.382;10.850;2022-10-16T08:26:43;23.30;99.90
19365;DHT22;9818;48.382;10.850;2022-10-16T08:29:15;24.10;99.90
19365;DHT22;9818;48.382;10.850;2022-10-16T08:31:43;26.70;99.90
19365;DHT22;9818;48.382;10.850;2022-10-16T08:34:12;27.80;99.90
19365;DHT22;9818;48.382;10.850;2022-10-16T08:36:41;28.10;99.90
19365;DHT22;9818;48.382;10.850;2022-10-16T08:39:09;28.70;99.90
19365;DHT22;9818;48.382;10.850;2022-10-16T08:42:04;28.90;99.90
19365;DHT22;9818;48.382;10.850;2022-10-16T08:44:58;29.70;99.90
19365;DHT22;9818;48.382;10.850;2022-10-16T08:47:39;30.40;99.90
19365;DHT22;9818;48.382;10.850;2022-10-16T08:50:14;31.40;99.90
19365;DHT22;9818;48.382;10.850;2022-10-16T08:52:45;31.90;99.90
19365;DHT22;9818;48.382;10.850;2022-10-16T08:55:31;31.80;87.40
19365;DHT22;9818;48.382;10.850;2022-10-16T08:58:01;31.20;99.90
19365;DHT22;9818;48.382;10.850;2022-10-16T09:00:32;32.70;96.80
19365;DHT22;9818;48.382;10.850;2022-10-16T09:03:04;32.20;99.50
19365;DHT22;9818;48.382;10.850;2022-10-16T09:05:43;31.50;89.50
19365;DHT22;9818;48.382;10.850;2022-10-16T09:08:16;30.20;99.90
19365;DHT22;9818;48.382;10.850;2022-10-16T09:10:49;30.50;99.90
19365;DHT22;9818;48.382;10.850;2022-10-16T09:13:21;30.30;99.90
19365;DHT22;9818;48.382;10.850;2022-10-16T09:15:56;29.50;99.90
19365;DHT22;9818;48.382;10.850;2022-10-16T09:18:28;29.40;99.90
19365;DHT22;9818;48.382;10.850;2022-10-16T09:20:58;28.90;99.90
19365;DHT22;9818;48.382;10.850;2022-10-16T09:23:32;28.70;97.90
19365;DHT22;9818;48.382;10.850;2022-10-16T09:26:03;28.50;99.90
19365;DHT22;9818;48.382;10.850;2022-10-16T09:28:33;27.50;99.90
19365;DHT22;9818;48.382;10.850;2022-10-16T09:31:04;26.50;99.90
19365;DHT22;9818;48.382;10.850;2022-10-16T09:33:35;26.50;99.90
19365;DHT22;9818;48.382;10.850;2022-10-16T09:36:05;26.40;99.90
19365;DHT22;9818;48.382;10.850;2022-10-16T09:38:34;25.90;99.90
19365;DHT22;9818;48.382;10.850;2022-10-16T09:41:10;26.50;99.90
19365;DHT22;9818;48.382;10.850;2022-10-16T09:43:47;26.90;99.90
19365;DHT22;9818;48.382;10.850;2022-10-16T09:46:29;26.20;99.90
19365;DHT22;9818;48.382;10.850;2022-10-16T09:48:58;26.20;99.90
19365;DHT22;9818;48.382;10.850;2022-10-16T09:51:29;26.90;99.90
19365;DHT22;9818;48.382;10.850;2022-10-16T09:54:00;27.00;99.90
19365;DHT22;9818;48.382;10.850;2022-10-16T09:56:30;26.40;99.90
19365;DHT22;9818;48.382;10.850;2022-10-16T09:59:08;26.10;99.90
19365;DHT22;9818;48.382;10.850;2022-10-16T10:01:44;25.80;99.90
19365;DHT22;9818;48.382;10.850;2022-10-16T10:04:14;25.30;99.90
19365;DHT22;9818;48.382;10.850;2022-10-16T10:06:44;25.20;99.90
19365;DHT22;9818;48.382;10.850;2022-10-16T10:09:19;25.10;99.90
19365;DHT22;9818;48.382;10.850;2022-10-16T10:11:50;24.90;99.90
19365;DHT22;9818;48.382;10.850;2022-10-16T10:14:23;24.60;99.90
19365;DHT22;9818;48.382;10.850;2022-10-16T10:17:02;24.80;99.90
19365;DHT22;9818;48.382;10.850;2022-10-16T10:19:37;25.30;99.90
19365;DHT22;9818;48.382;10.850;2022-10-16T10:22:13;25.50;99.90
19365;DHT22;9818;48.382;10.850;2022-10-16T10:24:41;25.60;99.90
19365;DHT22;9818;48.382;10.850;2022-10-16T10:27:10;25.60;99.90
19365;DHT22;9818;48.382;10.850;2022-10-16T10:29:45;25.40;99.90
19365;DHT22;9818;48.382;10.850;2022-10-16T10:32:22;25.40;99.90
19365;DHT22;9818;48.382;10.850;2022-10-16T10:34:58;25.70;99.90
19365;DHT22;9818;48.382;10.850;2022-10-16T10:37:36;25.50;99.90
19365;DHT22;9818;48.382;10.850;2022-10-16T10:40:08;25.70;99.90
19365;DHT22;9818;48.382;10.850;2022-10-16T10:42:40;25.80;99.90
19365;DHT22;9818;48.382;10.850;2022-10-16T10:45:17;26.20;99.90
19365;DHT22;9818;48.382;10.850;2022-10-16T10:47:56;26.30;99.90
19365;DHT22;9818;48.382;10.850;2022-10-16T10:50:30;26.50;99.90
19365;DHT22;9818;48.382;10.850;2022-10-16T10:53:09;26.80;99.90
19365;DHT22;9818;48.382;10.850;2022-10-16T10:55:43;26.30;99.90
19365;DHT22;9818;48.382;10.850;2022-10-16T10:58:34;25.50;99.90
19365;DHT22;9818;48.382;10.850;2022-10-16T11:01:08;25.40;99.90
19365;DHT22;9818;48.382;10.850;2022-10-16T11:04:01;25.70;99.90
19365;DHT22;9818;48.382;10.850;2022-10-16T11:06:36;26.30;99.90
19365;DHT22;9818;48.382;10.850;2022-10-16T11:09:11;26.60;99.90
19365;DHT22;9818;48.382;10.850;2022-10-16T11:11:43;26.20;99.90
19365;DHT22;9818;48.382;10.850;2022-10-16T11:14:17;25.60;99.90
19365;DHT22;9818;48.382;10.850;2022-10-16T11:16:51;25.50;99.90
19365;DHT22;9818;48.382;10.850;2022-10-16T11:19:25;25.70;99.90
19365;DHT22;9818;48.382;10.850;2022-10-16T11:22:01;25.80;99.90
19365;DHT22;9818;48.382;10.850;2022-10-16T11:24:40;25.60;99.90
19365;DHT22;9818;48.382;10.850;2022-10-16T11:27:11;25.80;99.90
19365;DHT22;9818;48.382;10.850;2022-10-16T11:29:45;25.50;99.90
19365;DHT22;9818;48.382;10.850;2022-10-16T11:32:20;25.30;99.90
19365;DHT22;9818;48.382;10.850;2022-10-16T11:34:57;25.20;99.90
19365;DHT22;9818;48.382;10.850;2022-10-16T11:37:32;25.30;99.90
19365;DHT22;9818;48.382;10.850;2022-10-16T11:40:16;25.50;99.90
19365;DHT22;9818;48.382;10.850;2022-10-16T11:42:48;25.40;99.90
19365;DHT22;9818;48.382;10.850;2022-10-16T11:45:23;25.60;99.90
19365;DHT22;9818;48.382;10.850;2022-10-16T11:47:54;25.50;99.90
19365;DHT22;9818;48.382;10.850;2022-10-16T11:50:28;25.70;99.90
19365;DHT22;9818;48.382;10.850;2022-10-16T11:52:59;25.80;99.90
19365;DHT22;9818;48.382;10.850;2022-10-16T11:55:29;26.10;99.90
19365;DHT22;9818;48.382;10.850;2022-10-16T11:58:00;26.20;99.90
19365;DHT22;9818;48.382;10.850;2022-10-16T12:00:31;26.20;99.90
19365;DHT22;9818;48.382;10.850;2022-10-16T12:03:03;26.40;99.90
19365;DHT22;9818;48.382;10.850;2022-10-16T12:05:44;26.80;99.90
19365;DHT22;9818;48.382;10.850;2022-10-16T12:08:18;26.30;99.90
19365;DHT22;9818;48.382;10.850;2022-10-16T12:10:47;26.80;99.90
19365;DHT22;9818;48.382;10.850;2022-10-16T12:13:31;26.80;99.90
19365;DHT22;9818;48.382;10.850;2022-10-16T12:16:08;27.40;99.90
19365;DHT22;9818;48.382;10.850;2022-10-16T12:18:47;27.10;99.90
19365;DHT22;9818;48.382;10.850;2022-10-16T12:21:18;27.30;99.90
19365;DHT22;9818;48.382;10.850;2022-10-16T12:23:58;27.00;99.90
19365;DHT22;9818;48.382;10.850;2022-10-16T12:26:29;26.90;99.90
19365;DHT22;9818;48.382;10.850;2022-10-16T12:29:09;26.40;99.90
19365;DHT22;9818;48.382;10.850;2022-10-16T12:31:42;26.10;99.90
19365;DHT22;9818;48.382;10.850;2022-10-16T12:34:14;26.10;99.90
19365;DHT22;9818;48.382;10.850;2022-10-16T12:36:52;26.00;99.90
19365;DHT22;9818;48.382;10.850;2022-10-16T12:39:23;25.80;99.90
19365;DHT22;9818;48.382;10.850;2022-10-16T12:42:02;25.80;99.90
19365;DHT22;9818;48.382;10.850;2022-10-16T12:44:35;25.90;99.90
19365;DHT22;9818;48.382;10.850;2022-10-16T12:47:03;25.80;99.90
19365;DHT22;9818;48.382;10.850;2022-10-16T12:49:36;25.70;99.90
19365;DHT22;9818;48.382;10.850;2022-10-16T12:52:37;25.60;99.90
19365;DHT22;9818;48.382;10.850;2022-10-16T12:55:16;25.50;99.90
19365;DHT22;9818;48.382;10.850;2022-10-16T12:57:57;25.30;99.90
19365;DHT22;9818;48.382;10.850;2022-10-16T13:00:34;25.30;99.90
19365;DHT22;9818;48.382;10.850;2022-10-16T13:03:25;25.10;99.90
19365;DHT22;9818;48.382;10.850;2022-10-16T13:06:08;25.30;99.90
19365;DHT22;9818;48.382;10.850;2022-10-16T13:09:02;25.40;99.90
19365;DHT22;9818;48.382;10.850;2022-10-16T13:11:45;25.50;99.90
19365;DHT22;9818;48.382;10.850;2022-10-16T13:17:18;25.40;99.90
19365;DHT22;9818;48.382;10.850;2022-10-16T13:19:55;25.60;99.90
19365;DHT22;9818;48.382;10.850;2022-10-16T13:22:30;25.60;99.90
19365;DHT22;9818;48.382;10.850;2022-10-16T13:25:19;25.60;99.90
19365;DHT22;9818;48.382;10.850;2022-10-16T13:27:54;25.70;99.90
19365;DHT22;9818;48.382;10.850;2022-10-16T13:30:25;25.70;99.90
19365;DHT22;9818;48.382;10.850;2022-10-16T13:32:59;25.70;99.90
19365;DHT22;9818;48.382;10.850;2022-10-16T13:35:28;25.70;99.90
19365;DHT22;9818;48.382;10.850;2022-10-16T13:38:04;25.70;99.90
19365;DHT22;9818;48.382;10.850;2022-10-16T13:40:35;25.90;99.90
19365;DHT22;9818;48.382;10.850;2022-10-16T13:43:03;25.70;99.90
19365;DHT22;9818;48.382;10.850;2022-10-16T13:45:32;25.70;99.90
19365;DHT22;9818;48.382;10.850;2022-10-16T13:48:04;25.50;99.90
19365;DHT22;9818;48.382;10.850;2022-10-16T13:50:32;25.60;99.90
19365;DHT22;9818;48.382;10.850;2022-10-16T13:53:04;25.40;99.90
19365;DHT22;9818;48.382;10.850;2022-10-16T13:55:35;25.50;99.90
19365;DHT22;9818;48.382;10.850;2022-10-16T13:58:04;25.60;99.90
19365;DHT22;9818;48.382;10.850;2022-10-16T14:00:33;25.50;99.90
19365;DHT22;9818;48.382;10.850;2022-10-16T14:03:02;25.60;99.90
19365;DHT22;9818;48.382;10.850;2022-10-16T14:05:31;25.60;99.90
19365;DHT22;9818;48.382;10.850;2022-10-16T14:08:00;25.60;99.90
19365;DHT22;9818;48.382;10.850;2022-10-16T14:10:29;25.60;99.90
19365;DHT22;9818;48.382;10.850;2022-10-16T14:13:02;25.50;99.90
19365;DHT22;9818;48.382;10.850;2022-10-16T14:15:31;25.20;99.90
19365;DHT22;9818;48.382;10.850;2022-10-16T14:18:00;24.90;99.90
19365;DHT22;9818;48.382;10.850;2022-10-16T14:20:30;24.70;99.90
19365;DHT22;9818;48.382;10.850;2022-10-16T14:23:01;24.50;99.90
19365;DHT22;9818;48.382;10.850;2022-10-16T14:25:30;24.50;99.90
19365;DHT22;9818;48.382;10.850;2022-10-16T14:28:03;24.40;99.90
19365;DHT22;9818;48.382;10.850;2022-10-16T14:30:32;24.40;99.90
19365;DHT22;9818;48.382;10.850;2022-10-16T14:33:02;24.60;99.90
19365;DHT22;9818;48.382;10.850;2022-10-16T14:35:31;24.40;99.90
19365;DHT22;9818;48.382;10.850;2022-10-16T14:38:01;24.00;99.90
19365;DHT22;9818;48.382;10.850;2022-10-16T14:40:30;23.90;99.90
19365;DHT22;9818;48.382;10.850;2022-10-16T14:43:02;23.70;99.90
19365;DHT22;9818;48.382;10.850;2022-10-16T14:45:33;23.40;99.90
19365;DHT22;9818;48.382;10.850;2022-10-16T14:48:02;23.50;99.90
19365;DHT22;9818;48.382;10.850;2022-10-16T14:50:32;23.60;99.90
19365;DHT22;9818;48.382;10.850;2022-10-16T14:53:00;23.60;99.90
19365;DHT22;9818;48.382;10.850;2022-10-16T14:55:29;23.50;99.90
19365;DHT22;9818;48.382;10.850;2022-10-16T14:57:57;23.20;99.90
19365;DHT22;9818;48.382;10.850;2022-10-16T15:00:28;23.20;99.90
19365;DHT22;9818;48.382;10.850;2022-10-16T15:02:57;23.40;99.90
19365;DHT22;9818;48.382;10.850;2022-10-16T15:05:25;23.40;99.90
19365;DHT22;9818;48.382;10.850;2022-10-16T15:07:55;23.10;99.90
19365;DHT22;9818;48.382;10.850;2022-10-16T15:10:24;22.80;99.90
19365;DHT22;9818;48.382;10.850;2022-10-16T15:12:53;22.50;99.90
19365;DHT22;9818;48.382;10.850;2022-10-16T15:15:28;22.20;99.90
19365;DHT22;9818;48.382;10.850;2022-10-16T15:17:59;22.10;99.90
19365;DHT22;9818;48.382;10.850;2022-10-16T15:20:28;22.10;99.90
19365;DHT22;9818;48.382;10.850;2022-10-16T15:22:59;22.10;99.90
19365;DHT22;9818;48.382;10.850;2022-10-16T15:25:32;21.90;99.90
19365;DHT22;9818;48.382;10.850;2022-10-16T15:28:01;21.80;99.90
19365;DHT22;9818;48.382;10.850;2022-10-16T15:30:32;21.80;99.90
19365;DHT22;9818;48.382;10.850;2022-10-16T15:33:01;21.80;99.90
19365;DHT22;9818;48.382;10.850;2022-10-16T15:35:29;21.80;99.90
19365;DHT22;9818;48.382;10.850;2022-10-16T15:37:58;21.70;99.90
19365;DHT22;9818;48.382;10.850;2022-10-16T15:40:26;21.70;99.90
19365;DHT22;9818;48.382;10.850;2022-10-16T15:42:55;21.50;99.90
19365;DHT22;9818;48.382;10.850;2022-10-16T15:45:23;21.50;99.90
19365;DHT22;9818;48.382;10.850;2022-10-16T15:47:54;21.40;99.90
19365;DHT22;9818;48.382;10.850;2022-10-16T15:50:23;21.40;99.90
19365;DHT22;9818;48.382;10.850;2022-10-16T15:52:51;21.30;99.90
19365;DHT22;9818;48.382;10.850;2022-10-16T15:55:20;21.20;99.90
19365;DHT22;9818;48.382;10.850;2022-10-16T15:57:48;21.00;99.90
19365;DHT22;9818;48.382;10.850;2022-10-16T16:00:18;20.90;99.90
19365;DHT22;9818;48.382;10.850;2022-10-16T16:02:53;20.80;99.90
19365;DHT22;9818;48.382;10.850;2022-10-16T16:05:22;20.70;99.90
19365;DHT22;9818;48.382;10.850;2022-10-16T16:07:50;20.60;99.90
19365;DHT22;9818;48.382;10.850;2022-10-16T16:10:19;20.50;99.90